sensor_id;sensor_type;location;lat;lon;timestamp;temperature;humidity
37432;DHT22;23292;51.300;6.252;2022-12-18T00:01:18;-5.20;99.90
37432;DHT22;23292;51.300;6.252;2022-12-18T00:03:45;-5.20;99.90
37432;DHT22;23292;51.300;6.252;2022-12-18T00:06:13;-5.20;99.90
37432;DHT22;23292;51.300;6.252;2022-12-18T00:08:41;-5.20;99.90
37432;DHT22;23292;51.300;6.252;2022-12-18T00:11:12;-5.30;99.90
37432;DHT22;23292;51.300;6.252;2022-12-18T00:13:40;-5.30;99.90
37432;DHT22;23292;51.300;6.252;2022-12-18T00:16:10;-5.30;99.90
37432;DHT22;23292;51.300;6.252;2022-12-18T00:18:37;-5.30;99.90
37432;DHT22;23292;51.300;6.252;2022-12-18T00:21:06;-5.20;99.90
37432;DHT22;23292;51.300;6.252;2022-12-18T00:23:34;-5.30;99.90
37432;DHT22;23292;51.300;6.252;2022-12-18T00:26:11;-5.30;99.90
37432;DHT22;23292;51.300;6.252;2022-12-18T00:28:39;-5.30;99.90
37432;DHT22;23292;51.300;6.252;2022-12-18T00:31:09;-5.30;99.90
37432;DHT22;23292;51.300;6.252;2022-12-18T00:33:37;-5.40;99.90
37432;DHT22;23292;51.300;6.252;2022-12-18T00:36:06;-5.40;99.90
37432;DHT22;23292;51.300;6.252;2022-12-18T00:38:34;-5.50;99.90
37432;DHT22;23292;51.300;6.252;2022-12-18T00:41:01;-5.50;99.90
37432;DHT22;23292;51.300;6.252;2022-12-18T00:43:28;-5.50;99.90
37432;DHT22;23292;51.300;6.252;2022-12-18T00:45:55;-5.50;99.90
37432;DHT22;23292;51.300;6.252;2022-12-18T00:48:21;-5.50;99.90
37432;DHT22;23292;51.300;6.252;2022-12-18T00:50:49;-5.40;99.90
37432;DHT22;23292;51.300;6.252;2022-12-18T00:53:16;-5.40;99.90
37432;DHT22;23292;51.300;6.252;2022-12-18T00:55:44;-5.50;99.90
37432;DHT22;23292;51.300;6.252;2022-12-18T00:58:13;-5.40;99.90
37432;DHT22;23292;51.300;6.252;2022-12-18T01:00:41;-5.30;99.90
37432;DHT22;23292;51.300;6.252;2022-12-18T01:03:13;-5.20;99.90
37432;DHT22;23292;51.300;6.252;2022-12-18T01:05:41;-5.30;99.90
37432;DHT22;23292;51.300;6.252;2022-12-18T01:08:08;-5.40;99.90
37432;DHT22;23292;51.300;6.252;2022-12-18T01:10:34;-5.40;99.90
37432;DHT22;23292;51.300;6.252;2022-12-18T01:13:02;-5.40;99.90
37432;DHT22;23292;51.300;6.252;2022-12-18T01:15:29;-5.30;99.90
37432;DHT22;23292;51.300;6.252;2022-12-18T01:17:55;-5.40;99.90
37432;DHT22;23292;51.300;6.252;2022-12-18T01:20:26;-5.50;99.90
37432;DHT22;23292;51.300;6.252;2022-12-18T01:22:53;-5.60;99.90
37432;DHT22;23292;51.300;6.252;2022-12-18T01:25:19;-5.60;99.90
37432;DHT22;23292;51.300;6.252;2022-12-18T01:27:46;-5.60;99.90
37432;DHT22;23292;51.300;6.252;2022-12-18T01:30:13;-5.60;99.90
37432;DHT22;23292;51.300;6.252;2022-12-18T01:32:39;-5.70;99.90
37432;DHT22;23292;51.300;6.252;2022-12-18T01:35:06;-5.80;99.90
37432;DHT22;23292;51.300;6.252;2022-12-18T01:37:33;-5.90;99.90
37432;DHT22;23292;51.300;6.252;2022-12-18T01:40:00;-5.90;99.90
37432;DHT22;23292;51.300;6.252;2022-12-18T01:42:26;-6.00;99.90
37432;DHT22;23292;51.300;6.252;2022-12-18T01:44:59;-6.10;99.90
37432;DHT22;23292;51.300;6.252;2022-12-18T01:47:46;-6.20;99.90
37432;DHT22;23292;51.300;6.252;2022-12-18T01:50:16;-6.20;99.90
37432;DHT22;23292;51.300;6.252;2022-12-18T01:52:47;-6.30;99.90
37432;DHT22;23292;51.300;6.252;2022-12-18T01:55:16;-6.20;99.90
37432;DHT22;23292;51.300;6.252;2022-12-18T01:57:43;-6.20;99.90
37432;DHT22;23292;51.300;6.252;2022-12-18T02:00:14;-6.30;99.90
37432;DHT22;23292;51.300;6.252;2022-12-18T02:02:43;-6.40;99.90
37432;DHT22;23292;51.300;6.252;2022-12-18T02:05:13;-6.50;99.90
37432;DHT22;23292;51.300;6.252;2022-12-18T02:10:29;-6.60;99.90
37432;DHT22;23292;51.300;6.252;2022-12-18T02:13:13;-6.60;99.90
37432;DHT22;23292;51.300;6.252;2022-12-18T02:16:03;-6.60;99.90
37432;DHT22;23292;51.300;6.252;2022-12-18T02:18:32;-6.60;99.90
37432;DHT22;23292;51.300;6.252;2022-12-18T02:21:46;-6.70;99.90
37432;DHT22;23292;51.300;6.252;2022-12-18T02:24:35;-6.70;99.90
37432;DHT22;23292;51.300;6.252;2022-12-18T02:27:06;-6.70;99.90
37432;DHT22;23292;51.300;6.252;2022-12-18T02:29:46;-6.70;99.90
37432;DHT22;23292;51.300;6.252;2022-12-18T02:32:27;-6.70;99.90
37432;DHT22;23292;51.300;6.252;2022-12-18T02:34:56;-6.70;99.90
37432;DHT22;23292;51.300;6.252;2022-12-18T02:37:27;-6.70;99.90
37432;DHT22;23292;51.300;6.252;2022-12-18T02:39:58;-6.80;99.90
37432;DHT22;23292;51.300;6.252;2022-12-18T02:42:26;-6.80;99.90
37432;DHT22;23292;51.300;6.252;2022-12-18T02:44:54;-6.70;99.90
37432;DHT22;23292;51.300;6.252;2022-12-18T02:47:32;-6.70;99.90
37432;DHT22;23292;51.300;6.252;2022-12-18T02:50:08;-6.60;99.90
37432;DHT22;23292;51.300;6.252;2022-12-18T02:58:19;-6.40;99.90
37432;DHT22;23292;51.300;6.252;2022-12-18T03:00:52;-6.30;99.90
37432;DHT22;23292;51.300;6.252;2022-12-18T03:03:34;-6.30;99.90
37432;DHT22;23292;51.300;6.252;2022-12-18T03:06:10;-6.10;99.90
37432;DHT22;23292;51.300;6.252;2022-12-18T03:08:46;-6.10;99.90
37432;DHT22;23292;51.300;6.252;2022-12-18T03:11:15;-5.90;99.90
37432;DHT22;23292;51.300;6.252;2022-12-18T03:13:52;-5.80;99.90
37432;DHT22;23292;51.300;6.252;2022-12-18T03:16:27;-5.60;99.90
37432;DHT22;23292;51.300;6.252;2022-12-18T03:19:01;-5.60;99.90
37432;DHT22;23292;51.300;6.252;2022-12-18T03:21:33;-5.60;99.90
37432;DHT22;23292;51.300;6.252;2022-12-18T03:24:06;-5.60;99.90
37432;DHT22;23292;51.300;6.252;2022-12-18T03:26:37;-5.50;99.90
37432;DHT22;23292;51.300;6.252;2022-12-18T03:29:12;-5.30;99.90
37432;DHT22;23292;51.300;6.252;2022-12-18T03:31:42;-5.50;99.90
37432;DHT22;23292;51.300;6.252;2022-12-18T03:34:23;-5.50;99.90
37432;DHT22;23292;51.300;6.252;2022-12-18T03:36:51;-5.40;99.90
37432;DHT22;23292;51.300;6.252;2022-12-18T03:39:19;-5.30;99.90
37432;DHT22;23292;51.300;6.252;2022-12-18T03:42:15;-5.30;99.90
37432;DHT22;23292;51.300;6.252;2022-12-18T03:47:41;-5.40;99.90
37432;DHT22;23292;51.300;6.252;2022-12-18T03:50:22;-5.40;99.90
37432;DHT22;23292;51.300;6.252;2022-12-18T03:53:22;-5.50;99.90
37432;DHT22;23292;51.300;6.252;2022-12-18T03:55:48;-5.50;99.90
37432;DHT22;23292;51.300;6.252;2022-12-18T03:58:19;-5.50;99.90
37432;DHT22;23292;51.300;6.252;2022-12-18T04:01:00;-5.50;99.90
37432;DHT22;23292;51.300;6.252;2022-12-18T04:03:29;-5.50;99.90
37432;DHT22;23292;51.300;6.252;2022-12-18T04:05:59;-5.50;99.90
37432;DHT22;23292;51.300;6.252;2022-12-18T04:08:28;-5.50;99.90
37432;DHT22;23292;51.300;6.252;2022-12-18T04:11:02;-5.50;99.90
37432;DHT22;23292;51.300;6.252;2022-12-18T04:13:35;-5.50;99.90
37432;DHT22;23292;51.300;6.252;2022-12-18T04:16:07;-5.50;99.90
37432;DHT22;23292;51.300;6.252;2022-12-18T04:18:34;-5.40;99.90
37432;DHT22;23292;51.300;6.252;2022-12-18T04:21:01;-5.40;99.90
37432;DHT22;23292;51.300;6.252;2022-12-18T04:23:29;-5.40;99.90
37432;DHT22;23292;51.300;6.252;2022-12-18T04:25:57;-5.30;99.90
37432;DHT22;23292;51.300;6.252;2022-12-18T04:28:50;-5.20;99.90
37432;DHT22;23292;51.300;6.252;2022-12-18T04:31:17;-5.20;99.90
37432;DHT22;23292;51.300;6.252;2022-12-18T04:33:44;-5.20;99.90
37432;DHT22;23292;51.300;6.252;2022-12-18T04:36:10;-5.20;99.90
37432;DHT22;23292;51.300;6.252;2022-12-18T04:38:39;-5.20;99.90
37432;DHT22;23292;51.300;6.252;2022-12-18T04:41:10;-5.10;99.90
37432;DHT22;23292;51.300;6.252;2022-12-18T04:43:41;-5.00;99.90
37432;DHT22;23292;51.300;6.252;2022-12-18T04:46:08;-5.00;99.90
37432;DHT22;23292;51.300;6.252;2022-12-18T04:48:35;-5.00;99.90
37432;DHT22;23292;51.300;6.252;2022-12-18T04:51:03;-4.90;99.90
37432;DHT22;23292;51.300;6.252;2022-12-18T04:53:30;-4.80;99.90
37432;DHT22;23292;51.300;6.252;2022-12-18T04:56:10;-4.80;99.90
37432;DHT22;23292;51.300;6.252;2022-12-18T04:58:39;-4.80;99.90
37432;DHT22;23292;51.300;6.252;2022-12-18T05:01:06;-4.80;99.90
37432;DHT22;23292;51.300;6.252;2022-12-18T05:03:34;-4.80;99.90
37432;DHT22;23292;51.300;6.252;2022-12-18T05:06:02;-4.90;99.90
37432;DHT22;23292;51.300;6.252;2022-12-18T05:08:29;-4.80;99.90
37432;DHT22;23292;51.300;6.252;2022-12-18T05:11:07;-4.80;99.90
37432;DHT22;23292;51.300;6.252;2022-12-18T05:13:35;-4.70;99.90
37432;DHT22;23292;51.300;6.252;2022-12-18T05:16:03;-4.70;99.90
37432;DHT22;23292;51.300;6.252;2022-12-18T05:18:30;-4.80;99.90
37432;DHT22;23292;51.300;6.252;2022-12-18T05:20:57;-4.80;99.90
37432;DHT22;23292;51.300;6.252;2022-12-18T05:23:25;-4.70;99.90
37432;DHT22;23292;51.300;6.252;2022-12-18T05:25:59;-4.80;99.90
37432;DHT22;23292;51.300;6.252;2022-12-18T05:28:28;-4.70;99.90
37432;DHT22;23292;51.300;6.252;2022-12-18T05:30:57;-4.70;99.90
37432;DHT22;23292;51.300;6.252;2022-12-18T05:33:26;-4.70;99.90
37432;DHT22;23292;51.300;6.252;2022-12-18T05:35:55;-4.50;99.90
37432;DHT22;23292;51.300;6.252;2022-12-18T05:38:23;-4.50;99.90
37432;DHT22;23292;51.300;6.252;2022-12-18T05:40:51;-4.60;99.90
37432;DHT22;23292;51.300;6.252;2022-12-18T05:43:18;-4.50;99.90
37432;DHT22;23292;51.300;6.252;2022-12-18T05:45:48;-4.50;99.90
37432;DHT22;23292;51.300;6.252;2022-12-18T05:48:15;-4.50;99.90
37432;DHT22;23292;51.300;6.252;2022-12-18T05:50:43;-4.50;99.90
37432;DHT22;23292;51.300;6.252;2022-12-18T05:53:13;-4.60;99.90
37432;DHT22;23292;51.300;6.252;2022-12-18T05:55:41;-4.50;99.90
37432;DHT22;23292;51.300;6.252;2022-12-18T05:58:09;-4.50;99.90
37432;DHT22;23292;51.300;6.252;2022-12-18T06:00:39;-4.50;99.90
37432;DHT22;23292;51.300;6.252;2022-12-18T06:03:07;-4.50;99.90
37432;DHT22;23292;51.300;6.252;2022-12-18T06:05:39;-4.50;99.90
37432;DHT22;23292;51.300;6.252;2022-12-18T06:08:07;-4.40;99.90
37432;DHT22;23292;51.300;6.252;2022-12-18T06:10:33;-4.40;99.90
37432;DHT22;23292;51.300;6.252;2022-12-18T06:13:00;-4.40;99.90
37432;DHT22;23292;51.300;6.252;2022-12-18T06:15:27;-4.40;99.90
37432;DHT22;23292;51.300;6.252;2022-12-18T06:17:54;-4.50;99.90
37432;DHT22;23292;51.300;6.252;2022-12-18T06:20:21;-4.50;99.90
37432;DHT22;23292;51.300;6.252;2022-12-18T06:22:48;-4.60;99.90
37432;DHT22;23292;51.300;6.252;2022-12-18T06:25:15;-4.50;99.90
37432;DHT22;23292;51.300;6.252;2022-12-18T06:27:42;-4.50;99.90
37432;DHT22;23292;51.300;6.252;2022-12-18T06:30:10;-4.50;99.90
37432;DHT22;23292;51.300;6.252;2022-12-18T06:32:37;-4.50;99.90
37432;DHT22;23292;51.300;6.252;2022-12-18T06:35:03;-4.50;99.90
37432;DHT22;23292;51.300;6.252;2022-12-18T06:37:31;-4.50;99.90
37432;DHT22;23292;51.300;6.252;2022-12-18T06:39:58;-4.50;99.90
37432;DHT22;23292;51.300;6.252;2022-12-18T06:42:24;-4.60;99.90
37432;DHT22;23292;51.300;6.252;2022-12-18T06:44:51;-4.70;99.90
37432;DHT22;23292;51.300;6.252;2022-12-18T06:47:18;-4.60;99.90
37432;DHT22;23292;51.300;6.252;2022-12-18T06:49:45;-4.60;99.90
37432;DHT22;23292;51.300;6.252;2022-12-18T06:52:11;-4.60;99.90
37432;DHT22;23292;51.300;6.252;2022-12-18T06:54:38;-4.60;99.90
37432;DHT22;23292;51.300;6.252;2022-12-18T06:57:05;-4.60;99.90
37432;DHT22;23292;51.300;6.252;2022-12-18T06:59:32;-4.50;99.90
37432;DHT22;23292;51.300;6.252;2022-12-18T07:01:59;-4.50;99.90
37432;DHT22;23292;51.300;6.252;2022-12-18T07:04:30;-4.50;99.90
37432;DHT22;23292;51.300;6.252;2022-12-18T07:06:57;-4.40;99.90
37432;DHT22;23292;51.300;6.252;2022-12-18T07:09:24;-4.40;99.90
37432;DHT22;23292;51.300;6.252;2022-12-18T07:11:51;-4.40;99.90
37432;DHT22;23292;51.300;6.252;2022-12-18T07:14:18;-4.40;99.90
37432;DHT22;23292;51.300;6.252;2022-12-18T07:16:45;-4.40;99.90
37432;DHT22;23292;51.300;6.252;2022-12-18T07:19:12;-4.40;99.90
37432;DHT22;23292;51.300;6.252;2022-12-18T07:21:38;-4.40;99.90
37432;DHT22;23292;51.300;6.252;2022-12-18T07:24:06;-4.40;99.90
37432;DHT22;23292;51.300;6.252;2022-12-18T07:26:32;-4.40;99.90
37432;DHT22;23292;51.300;6.252;2022-12-18T07:28:59;-4.40;99.90
37432;DHT22;23292;51.300;6.252;2022-12-18T07:31:26;-4.30;99.90
37432;DHT22;23292;51.300;6.252;2022-12-18T07:33:53;-4.30;99.90
37432;DHT22;23292;51.300;6.252;2022-12-18T07:36:20;-4.30;99.90
37432;DHT22;23292;51.300;6.252;2022-12-18T07:38:49;-4.30;99.90
37432;DHT22;23292;51.300;6.252;2022-12-18T07:41:16;-4.30;99.90
37432;DHT22;23292;51.300;6.252;2022-12-18T07:43:43;-4.30;99.90
37432;DHT22;23292;51.300;6.252;2022-12-18T07:46:11;-4.30;99.90
37432;DHT22;23292;51.300;6.252;2022-12-18T07:48:41;-4.20;99.90
37432;DHT22;23292;51.300;6.252;2022-12-18T07:51:09;-4.20;99.90
37432;DHT22;23292;51.300;6.252;2022-12-18T07:53:36;-4.20;99.90
37432;DHT22;23292;51.300;6.252;2022-12-18T07:56:06;-4.20;99.90
37432;DHT22;23292;51.300;6.252;2022-12-18T07:58:54;-4.20;99.90
37432;DHT22;23292;51.300;6.252;2022-12-18T08:01:20;-4.20;99.90
37432;DHT22;23292;51.300;6.252;2022-12-18T08:03:47;-4.10;99.90
37432;DHT22;23292;51.300;6.252;2022-12-18T08:06:15;-4.20;99.90
37432;DHT22;23292;51.300;6.252;2022-12-18T08:08:42;-4.20;99.90
37432;DHT22;23292;51.300;6.252;2022-12-18T08:11:09;-4.10;99.90
37432;DHT22;23292;51.300;6.252;2022-12-18T08:13:36;-4.00;99.90
37432;DHT22;23292;51.300;6.252;2022-12-18T08:16:07;-3.90;99.90
37432;DHT22;23292;51.300;6.252;2022-12-18T08:18:36;-3.90;99.90
37432;DHT22;23292;51.300;6.252;2022-12-18T08:21:15;-3.80;99.90
37432;DHT22;23292;51.300;6.252;2022-12-18T08:23:42;-3.80;99.90
37432;DHT22;23292;51.300;6.252;2022-12-18T08:26:12;-3.70;99.90
37432;DHT22;23292;51.300;6.252;2022-12-18T08:28:40;-3.60;99.90
37432;DHT22;23292;51.300;6.252;2022-12-18T08:31:07;-3.60;99.90
37432;DHT22;23292;51.300;6.252;2022-12-18T08:33:35;-3.60;99.90
37432;DHT22;23292;51.300;6.252;2022-12-18T08:36:04;-3.50;99.90
37432;DHT22;23292;51.300;6.252;2022-12-18T08:38:32;-3.40;99.90
37432;DHT22;23292;51.300;6.252;2022-12-18T08:41:00;-3.30;99.90
37432;DHT22;23292;51.300;6.252;2022-12-18T08:43:27;-3.30;99.90
37432;DHT22;23292;51.300;6.252;2022-12-18T08:46:12;-3.20;99.90
37432;DHT22;23292;51.300;6.252;2022-12-18T08:48:39;-3.10;99.90
37432;DHT22;23292;51.300;6.252;2022-12-18T08:51:06;-3.10;99.90
37432;DHT22;23292;51.300;6.252;2022-12-18T08:53:33;-2.90;99.90
37432;DHT22;23292;51.300;6.252;2022-12-18T08:56:02;-2.90;99.90
37432;DHT22;23292;51.300;6.252;2022-12-18T08:58:29;-2.80;99.90
37432;DHT22;23292;51.300;6.252;2022-12-18T09:01:03;-2.80;99.90
37432;DHT22;23292;51.300;6.252;2022-12-18T09:03:31;-2.70;99.90
37432;DHT22;23292;51.300;6.252;2022-12-18T09:05:58;-2.80;99.90
37432;DHT22;23292;51.300;6.252;2022-12-18T09:08:25;-2.70;99.90
37432;DHT22;23292;51.300;6.252;2022-12-18T09:10:52;-2.70;99.90
37432;DHT22;23292;51.300;6.252;2022-12-18T09:13:19;-2.60;99.90
37432;DHT22;23292;51.300;6.252;2022-12-18T09:15:51;-2.60;99.90
37432;DHT22;23292;51.300;6.252;2022-12-18T09:18:20;-2.50;99.90
37432;DHT22;23292;51.300;6.252;2022-12-18T09:20:47;-2.40;99.90
37432;DHT22;23292;51.300;6.252;2022-12-18T09:23:14;-2.40;99.90
37432;DHT22;23292;51.300;6.252;2022-12-18T09:25:41;-2.30;99.90
37432;DHT22;23292;51.300;6.252;2022-12-18T09:28:13;-2.20;99.90
37432;DHT22;23292;51.300;6.252;2022-12-18T09:30:43;-2.10;99.90
37432;DHT22;23292;51.300;6.252;2022-12-18T09:33:10;-2.10;99.90
37432;DHT22;23292;51.300;6.252;2022-12-18T09:35:38;-2.10;99.90
37432;DHT22;23292;51.300;6.252;2022-12-18T09:38:06;-2.00;99.90
37432;DHT22;23292;51.300;6.252;2022-12-18T09:40:36;-2.00;99.90
37432;DHT22;23292;51.300;6.252;2022-12-18T09:43:07;-1.70;99.90
37432;DHT22;23292;51.300;6.252;2022-12-18T09:45:44;-1.90;99.90
37432;DHT22;23292;51.300;6.252;2022-12-18T09:48:31;-1.80;99.90
37432;DHT22;23292;51.300;6.252;2022-12-18T09:51:04;-1.80;99.90
37432;DHT22;23292;51.300;6.252;2022-12-18T09:53:35;-1.70;99.90
37432;DHT22;23292;51.300;6.252;2022-12-18T09:56:03;-1.70;99.90
37432;DHT22;23292;51.300;6.252;2022-12-18T09:58:44;-1.60;99.90
37432;DHT22;23292;51.300;6.252;2022-12-18T10:01:18;-1.50;99.90
37432;DHT22;23292;51.300;6.252;2022-12-18T10:03:47;-1.50;99.90
37432;DHT22;23292;51.300;6.252;2022-12-18T10:06:27;-1.50;99.90
37432;DHT22;23292;51.300;6.252;2022-12-18T10:09:05;-1.40;99.90
37432;DHT22;23292;51.300;6.252;2022-12-18T10:14:41;-1.40;99.90
37432;DHT22;23292;51.300;6.252;2022-12-18T10:26:05;-1.20;99.90
37432;DHT22;23292;51.300;6.252;2022-12-18T10:28:35;-1.20;99.90
37432;DHT22;23292;51.300;6.252;2022-12-18T10:31:12;-1.10;99.90
37432;DHT22;23292;51.300;6.252;2022-12-18T10:33:40;-1.10;99.90
37432;DHT22;23292;51.300;6.252;2022-12-18T10:36:07;-1.00;99.90
37432;DHT22;23292;51.300;6.252;2022-12-18T10:38:34;-1.10;99.90
37432;DHT22;23292;51.300;6.252;2022-12-18T10:41:24;-1.10;99.90
37432;DHT22;23292;51.300;6.252;2022-12-18T10:44:21;-1.00;99.90
37432;DHT22;23292;51.300;6.252;2022-12-18T10:47:03;-1.10;99.90
37432;DHT22;23292;51.300;6.252;2022-12-18T10:49:42;-1.00;99.90
37432;DHT22;23292;51.300;6.252;2022-12-18T10:52:21;-0.80;99.90
37432;DHT22;23292;51.300;6.252;2022-12-18T10:59:54;-0.70;99.90
37432;DHT22;23292;51.300;6.252;2022-12-18T11:02:34;-0.70;99.90
37432;DHT22;23292;51.300;6.252;2022-12-18T11:05:01;-0.60;99.90
37432;DHT22;23292;51.300;6.252;2022-12-18T11:07:49;-0.70;99.90
37432;DHT22;23292;51.300;6.252;2022-12-18T11:10:18;-0.30;99.90
37432;DHT22;23292;51.300;6.252;2022-12-18T11:12:45;-0.60;99.90
37432;DHT22;23292;51.300;6.252;2022-12-18T11:15:30;-0.60;99.90
37432;DHT22;23292;51.300;6.252;2022-12-18T11:17:57;-0.60;99.90
37432;DHT22;23292;51.300;6.252;2022-12-18T11:20:31;-0.70;99.90
37432;DHT22;23292;51.300;6.252;2022-12-18T11:23:04;-0.50;99.90
37432;DHT22;23292;51.300;6.252;2022-12-18T11:25:33;-0.50;99.90
37432;DHT22;23292;51.300;6.252;2022-12-18T11:30:49;-0.40;99.90
37432;DHT22;23292;51.300;6.252;2022-12-18T11:33:19;-0.30;99.90
37432;DHT22;23292;51.300;6.252;2022-12-18T11:35:48;-0.40;99.90
37432;DHT22;23292;51.300;6.252;2022-12-18T11:38:22;-0.30;99.90
37432;DHT22;23292;51.300;6.252;2022-12-18T11:41:04;-0.40;99.90
37432;DHT22;23292;51.300;6.252;2022-12-18T11:46:12;-0.40;99.90
37432;DHT22;23292;51.300;6.252;2022-12-18T11:48:55;-0.40;99.90
37432;DHT22;23292;51.300;6.252;2022-12-18T11:51:37;-0.30;99.90
37432;DHT22;23292;51.300;6.252;2022-12-18T11:54:13;-0.20;99.90
37432;DHT22;23292;51.300;6.252;2022-12-18T11:56:47;-0.30;99.90
37432;DHT22;23292;51.300;6.252;2022-12-18T11:59:27;-0.20;99.90
37432;DHT22;23292;51.300;6.252;2022-12-18T12:11:06;-0.20;99.90
37432;DHT22;23292;51.300;6.252;2022-12-18T12:13:38;-0.20;99.90
37432;DHT22;23292;51.300;6.252;2022-12-18T12:16:17;-0.10;99.90
37432;DHT22;23292;51.300;6.252;2022-12-18T12:21:42;0.00;99.90
37432;DHT22;23292;51.300;6.252;2022-12-18T12:24:53;-0.10;99.90
37432;DHT22;23292;51.300;6.252;2022-12-18T12:29:55;0.00;99.90
37432;DHT22;23292;51.300;6.252;2022-12-18T12:32:51;-0.10;99.90
37432;DHT22;23292;51.300;6.252;2022-12-18T12:35:29;0.00;99.90
37432;DHT22;23292;51.300;6.252;2022-12-18T12:41:02;0.10;99.90
37432;DHT22;23292;51.300;6.252;2022-12-18T12:43:40;0.00;99.90
37432;DHT22;23292;51.300;6.252;2022-12-18T12:46:18;0.10;99.90
37432;DHT22;23292;51.300;6.252;2022-12-18T12:48:55;0.10;99.90
37432;DHT22;23292;51.300;6.252;2022-12-18T12:51:29;0.10;99.90
37432;DHT22;23292;51.300;6.252;2022-12-18T12:53:57;0.10;99.90
37432;DHT22;23292;51.300;6.252;2022-12-18T12:56:30;0.10;99.90
37432;DHT22;23292;51.300;6.252;2022-12-18T12:59:12;0.10;99.90
37432;DHT22;23292;51.300;6.252;2022-12-18T13:04:31;0.00;99.90
37432;DHT22;23292;51.300;6.252;2022-12-18T13:07:06;0.10;99.90
37432;DHT22;23292;51.300;6.252;2022-12-18T13:13:09;0.00;99.90
37432;DHT22;23292;51.300;6.252;2022-12-18T13:15:42;0.10;99.90
37432;DHT22;23292;51.300;6.252;2022-12-18T13:20:41;0.20;99.90
37432;DHT22;23292;51.300;6.252;2022-12-18T13:31:01;0.20;99.90
37432;DHT22;23292;51.300;6.252;2022-12-18T13:36:32;0.20;99.90
37432;DHT22;23292;51.300;6.252;2022-12-18T13:42:31;0.20;99.90
37432;DHT22;23292;51.300;6.252;2022-12-18T13:45:01;0.30;99.90
37432;DHT22;23292;51.300;6.252;2022-12-18T13:47:36;0.30;99.90
37432;DHT22;23292;51.300;6.252;2022-12-18T13:50:21;0.30;99.90
37432;DHT22;23292;51.300;6.252;2022-12-18T13:53:00;0.20;99.90
37432;DHT22;23292;51.300;6.252;2022-12-18T13:55:27;0.20;99.90
37432;DHT22;23292;51.300;6.252;2022-12-18T13:58:06;0.20;99.90
37432;DHT22;23292;51.300;6.252;2022-12-18T14:00:33;0.10;99.90
37432;DHT22;23292;51.300;6.252;2022-12-18T14:03:00;0.10;99.90
37432;DHT22;23292;51.300;6.252;2022-12-18T14:05:30;0.10;99.90
37432;DHT22;23292;51.300;6.252;2022-12-18T14:08:10;0.00;99.90
37432;DHT22;23292;51.300;6.252;2022-12-18T14:10:42;0.00;99.90
37432;DHT22;23292;51.300;6.252;2022-12-18T14:13:28;0.00;99.90
37432;DHT22;23292;51.300;6.252;2022-12-18T14:15:56;0.00;99.90
37432;DHT22;23292;51.300;6.252;2022-12-18T14:18:53;0.00;99.90
37432;DHT22;23292;51.300;6.252;2022-12-18T14:21:34;0.00;99.90
37432;DHT22;23292;51.300;6.252;2022-12-18T14:24:17;0.00;99.90
37432;DHT22;23292;51.300;6.252;2022-12-18T14:26:46;-0.10;99.90
37432;DHT22;23292;51.300;6.252;2022-12-18T14:29:26;-0.10;99.90
37432;DHT22;23292;51.300;6.252;2022-12-18T14:32:06;-0.10;99.90
37432;DHT22;23292;51.300;6.252;2022-12-18T14:34:40;-0.10;99.90
37432;DHT22;23292;51.300;6.252;2022-12-18T14:37:10;-0.10;99.90
37432;DHT22;23292;51.300;6.252;2022-12-18T14:39:38;-0.20;99.90
37432;DHT22;23292;51.300;6.252;2022-12-18T14:42:05;-0.20;99.90
37432;DHT22;23292;51.300;6.252;2022-12-18T14:44:32;-0.20;99.90
37432;DHT22;23292;51.300;6.252;2022-12-18T14:47:17;-0.20;99.90
37432;DHT22;23292;51.300;6.252;2022-12-18T14:49:44;-0.20;99.90
37432;DHT22;23292;51.300;6.252;2022-12-18T14:52:27;-0.20;99.90
37432;DHT22;23292;51.300;6.252;2022-12-18T14:54:55;-0.20;99.90
37432;DHT22;23292;51.300;6.252;2022-12-18T14:57:29;-0.20;99.90
37432;DHT22;23292;51.300;6.252;2022-12-18T15:00:06;-0.20;99.90
37432;DHT22;23292;51.300;6.252;2022-12-18T15:02:35;-0.20;99.90
37432;DHT22;23292;51.300;6.252;2022-12-18T15:05:18;-0.20;99.90
37432;DHT22;23292;51.300;6.252;2022-12-18T15:07:47;-0.30;99.90
37432;DHT22;23292;51.300;6.252;2022-12-18T15:10:24;-0.30;99.90
37432;DHT22;23292;51.300;6.252;2022-12-18T15:20:54;-0.30;99.90
37432;DHT22;23292;51.300;6.252;2022-12-18T15:23:31;-0.30;99.90
37432;DHT22;23292;51.300;6.252;2022-12-18T15:26:04;-0.30;99.90
37432;DHT22;23292;51.300;6.252;2022-12-18T15:36:20;-0.40;99.90
37432;DHT22;23292;51.300;6.252;2022-12-18T15:38:53;-0.40;99.90
37432;DHT22;23292;51.300;6.252;2022-12-18T15:41:25;-0.40;99.90
37432;DHT22;23292;51.300;6.252;2022-12-18T15:43:52;-0.40;99.90
37432;DHT22;23292;51.300;6.252;2022-12-18T15:46:23;-0.40;99.90
37432;DHT22;23292;51.300;6.252;2022-12-18T15:48:55;-0.40;99.90
37432;DHT22;23292;51.300;6.252;2022-12-18T15:51:31;-0.40;99.90
37432;DHT22;23292;51.300;6.252;2022-12-18T15:54:01;-0.30;99.90
37432;DHT22;23292;51.300;6.252;2022-12-18T15:56:30;-0.40;99.90
37432;DHT22;23292;51.300;6.252;2022-12-18T15:59:18;-0.40;99.90
37432;DHT22;23292;51.300;6.252;2022-12-18T16:01:50;-0.40;99.90
37432;DHT22;23292;51.300;6.252;2022-12-18T16:04:19;-0.40;99.90
37432;DHT22;23292;51.300;6.252;2022-12-18T16:06:50;-0.30;99.90
37432;DHT22;23292;51.300;6.252;2022-12-18T16:09:38;-0.30;99.90
37432;DHT22;23292;51.300;6.252;2022-12-18T16:12:06;-0.30;99.90
37432;DHT22;23292;51.300;6.252;2022-12-18T16:14:36;-0.30;99.90
37432;DHT22;23292;51.300;6.252;2022-12-18T16:17:08;-0.30;99.90
37432;DHT22;23292;51.300;6.252;2022-12-18T16:19:35;-0.20;99.90
37432;DHT22;23292;51.300;6.252;2022-12-18T16:22:02;-0.20;99.90
37432;DHT22;23292;51.300;6.252;2022-12-18T16:24:31;-0.20;99.90
37432;DHT22;23292;51.300;6.252;2022-12-18T16:27:00;-0.30;99.90
37432;DHT22;23292;51.300;6.252;2022-12-18T16:29:28;-0.30;99.90
37432;DHT22;23292;51.300;6.252;2022-12-18T16:31:56;-0.30;99.90
37432;DHT22;23292;51.300;6.252;2022-12-18T16:34:31;-0.20;99.90
37432;DHT22;23292;51.300;6.252;2022-12-18T16:37:03;-0.30;99.90
37432;DHT22;23292;51.300;6.252;2022-12-18T16:39:36;-0.20;99.90
37432;DHT22;23292;51.300;6.252;2022-12-18T16:42:13;-0.30;99.90
37432;DHT22;23292;51.300;6.252;2022-12-18T16:44:41;-0.20;99.90
37432;DHT22;23292;51.300;6.252;2022-12-18T16:47:08;-0.30;99.90
37432;DHT22;23292;51.300;6.252;2022-12-18T16:49:36;-0.20;99.90
37432;DHT22;23292;51.300;6.252;2022-12-18T16:52:04;-0.10;99.90
37432;DHT22;23292;51.300;6.252;2022-12-18T16:54:31;-0.20;99.90
37432;DHT22;23292;51.300;6.252;2022-12-18T16:57:00;-0.10;99.90
37432;DHT22;23292;51.300;6.252;2022-12-18T16:59:27;-0.10;99.90
37432;DHT22;23292;51.300;6.252;2022-12-18T17:01:55;-0.20;99.90
37432;DHT22;23292;51.300;6.252;2022-12-18T17:04:23;-0.20;99.90
37432;DHT22;23292;51.300;6.252;2022-12-18T17:06:49;-0.20;99.90
37432;DHT22;23292;51.300;6.252;2022-12-18T17:09:18;-0.20;99.90
37432;DHT22;23292;51.300;6.252;2022-12-18T17:11:52;-0.20;99.90
37432;DHT22;23292;51.300;6.252;2022-12-18T17:14:22;-0.20;99.90
37432;DHT22;23292;51.300;6.252;2022-12-18T17:16:50;-0.30;99.90
37432;DHT22;23292;51.300;6.252;2022-12-18T17:19:36;-0.30;99.90
37432;DHT22;23292;51.300;6.252;2022-12-18T17:22:04;-0.30;99.90
37432;DHT22;23292;51.300;6.252;2022-12-18T17:24:30;-0.30;99.90
37432;DHT22;23292;51.300;6.252;2022-12-18T17:27:01;-0.30;99.90
37432;DHT22;23292;51.300;6.252;2022-12-18T17:29:28;-0.30;99.90